Sand Lake, MI (49343)

5:54 PM EST on February 12, 2016 (GMT -0500)
Pine lake | | Change Station
CLOSE
Current Station
Personal Weather Station
Location: Cedar Springs, MI
Elevation: 920 ft
Nearby Weather Stations
Active Advisory: Winter Weather Advisory Active Notice: Local Storm Report

Elev 920 ft 43.22 °N, 85.45 °W | Updated 18 seconds ago

Snow
Snow
14.4 °F
Feels Like 8 °F
N
4.0
Wind Variable Wind from NW
Gusts 4.0 mph

Today
High -- | Low -- °F
--% Chance of Precip.
Yesterday
High -- | Low -- °F
Precip. -- in
Pressure 30.08 in
Visibility 3.0 miles
Clouds Mostly Cloudy 1500 ft
Windchill 8 °F
Dew Point 8 °F
Humidity 74%
Rainfall in
Snow Depth Not available.
7:44 AM 6:08 PM
Waxing Crescent, 24% visible
SPECI KGRR 122233Z 31016G28KT 3SM R26L/2000VP6000FT -SN BLSN BKN015 M09/M12 A3008 RMK AO2 PK WND 32028/2223 SNB10 P0000 T10891122
Pressure 30.08 in
Visibility 3.0 miles
Clouds Mostly Cloudy 1500 ft
Windchill 8 °F
Dew Point 8 °F
Humidity 74%
Rainfall in
Snow Depth Not available.
7:44 AM 6:08 PM
Waxing Crescent, 24% visible
SPECI KGRR 122233Z 31016G28KT 3SM R26L/2000VP6000FT -SN BLSN BKN015 M09/M12 A3008 RMK AO2 PK WND 32028/2223 SNB10 P0000 T10891122

10-Day Weather Forecast

Almanac

Astronomy

Feb. 12, 2016 Rise Set
Actual Time
Civil Twilight
Nautical Twilight
Astronomical Twilight
Moon
Length of Visible Light
Length of Day
Tomorrow will be .
, % of the Moon is Illuminated

Today's Extremes

State Highs State Lows

Community

WunderPhotos

Upload Photos

1,892,424 photos uploaded!

WunderBlog® & News

Nearby

Air Quality

  Air Quality AQ Index Pollutant
Not available.

Snow Depth

Station Depth Elevation

Earthquake Activity

City Distance Mag. Time & Date
Minimum magnitude displayed is 2.5.

Coastal Water Temperatures

Place Temperature

Stations

Nearby Weather Stations

Station Location Temp. Windchill Dew Point Humidity Wind Precip. Elev Updated Type
                   

Watches & Warnings

Winter Weather Advisory
Issued: 3:10 PM EST Feb. 12, 2016 – National Weather Service

... Winter Weather Advisory remains in effect until 7 PM EST this
evening...

Hazardous weather...

* snow showers ending early this evening.

* Intense snow burst around 6 PM near I-96 and 8 PM near I-94.

* Total snow 1 to 3 inches.

* Gusty winds in the late this afternoon will result in blowing
   snow.

Impacts...

* hazardous travel from mid morning through early evening.

* Accidents and slideoffs due to slippery roads and low
   visibilities.

Precautionary/preparedness actions...

* the Michigan Department of Transportation reminds motorists
   to adjust speeds based on the conditions... and to take it
   slow in ice and snow.



Wdm